sensor_id;sensor_type;location;lat;lon;timestamp;temperature;humidity
32895;DHT22;19251;49.484;8.260;2022-12-07T00:04:55;7.60;28.50
32895;DHT22;19251;49.484;8.260;2022-12-07T00:09:58;7.70;28.50
32895;DHT22;19251;49.484;8.260;2022-12-07T00:15:00;7.70;28.40
32895;DHT22;19251;49.484;8.260;2022-12-07T00:20:03;7.60;28.40
32895;DHT22;19251;49.484;8.260;2022-12-07T00:25:05;7.70;28.50
32895;DHT22;19251;49.484;8.260;2022-12-07T00:30:08;7.70;28.40
32895;DHT22;19251;49.484;8.260;2022-12-07T00:40:13;7.70;28.50
32895;DHT22;19251;49.484;8.260;2022-12-07T00:45:15;7.60;28.40
32895;DHT22;19251;49.484;8.260;2022-12-07T00:50:17;7.60;28.50
32895;DHT22;19251;49.484;8.260;2022-12-07T00:55:19;7.60;28.50
32895;DHT22;19251;49.484;8.260;2022-12-07T01:00:21;7.60;28.50
32895;DHT22;19251;49.484;8.260;2022-12-07T01:10:26;7.60;28.60
32895;DHT22;19251;49.484;8.260;2022-12-07T01:15:29;7.60;28.60
32895;DHT22;19251;49.484;8.260;2022-12-07T01:20:31;7.60;28.60
32895;DHT22;19251;49.484;8.260;2022-12-07T01:30:37;7.70;28.80
32895;DHT22;19251;49.484;8.260;2022-12-07T01:40:41;7.70;28.70
32895;DHT22;19251;49.484;8.260;2022-12-07T01:45:43;7.80;28.50
32895;DHT22;19251;49.484;8.260;2022-12-07T01:50:48;7.80;28.20
32895;DHT22;19251;49.484;8.260;2022-12-07T01:55:52;7.70;28.20
32895;DHT22;19251;49.484;8.260;2022-12-07T02:05:58;7.70;28.10
32895;DHT22;19251;49.484;8.260;2022-12-07T02:11:03;7.80;28.20
32895;DHT22;19251;49.484;8.260;2022-12-07T02:16:31;7.70;28.00
32895;DHT22;19251;49.484;8.260;2022-12-07T02:33:08;7.70;27.20
32895;DHT22;19251;49.484;8.260;2022-12-07T02:43:26;7.60;27.20
32895;DHT22;19251;49.484;8.260;2022-12-07T02:48:30;7.60;27.30
32895;DHT22;19251;49.484;8.260;2022-12-07T02:53:39;7.60;27.20
32895;DHT22;19251;49.484;8.260;2022-12-07T03:04:19;7.60;27.30
32895;DHT22;19251;49.484;8.260;2022-12-07T03:09:44;7.70;27.30
32895;DHT22;19251;49.484;8.260;2022-12-07T03:14:55;7.70;27.10
32895;DHT22;19251;49.484;8.260;2022-12-07T03:20:03;7.70;27.10
32895;DHT22;19251;49.484;8.260;2022-12-07T03:25:10;7.80;27.20
32895;DHT22;19251;49.484;8.260;2022-12-07T03:30:18;7.80;27.10
32895;DHT22;19251;49.484;8.260;2022-12-07T03:35:31;7.90;27.20
32895;DHT22;19251;49.484;8.260;2022-12-07T03:56:28;7.80;26.80
32895;DHT22;19251;49.484;8.260;2022-12-07T04:11:37;8.00;27.00
32895;DHT22;19251;49.484;8.260;2022-12-07T04:16:42;8.00;26.90
32895;DHT22;19251;49.484;8.260;2022-12-07T04:21:46;8.00;26.70
32895;DHT22;19251;49.484;8.260;2022-12-07T04:26:48;8.00;26.70
32895;DHT22;19251;49.484;8.260;2022-12-07T04:31:51;8.10;26.60
32895;DHT22;19251;49.484;8.260;2022-12-07T04:36:53;8.10;26.50
32895;DHT22;19251;49.484;8.260;2022-12-07T04:41:56;8.10;26.20
32895;DHT22;19251;49.484;8.260;2022-12-07T04:46:58;8.10;26.30
32895;DHT22;19251;49.484;8.260;2022-12-07T04:52:01;8.10;26.40
32895;DHT22;19251;49.484;8.260;2022-12-07T04:57:03;8.10;26.40
32895;DHT22;19251;49.484;8.260;2022-12-07T05:07:08;8.00;26.30
32895;DHT22;19251;49.484;8.260;2022-12-07T05:12:10;8.00;26.30
32895;DHT22;19251;49.484;8.260;2022-12-07T05:17:12;7.90;26.30
32895;DHT22;19251;49.484;8.260;2022-12-07T05:22:14;7.90;26.30
32895;DHT22;19251;49.484;8.260;2022-12-07T05:27:17;7.90;26.50
32895;DHT22;19251;49.484;8.260;2022-12-07T05:32:19;7.90;26.50
32895;DHT22;19251;49.484;8.260;2022-12-07T05:37:21;7.80;26.60
32895;DHT22;19251;49.484;8.260;2022-12-07T05:42:24;7.80;26.60
32895;DHT22;19251;49.484;8.260;2022-12-07T05:47:26;7.90;26.60
32895;DHT22;19251;49.484;8.260;2022-12-07T05:57:30;7.80;26.50
32895;DHT22;19251;49.484;8.260;2022-12-07T06:02:32;7.80;26.60
32895;DHT22;19251;49.484;8.260;2022-12-07T06:12:37;7.80;26.60
32895;DHT22;19251;49.484;8.260;2022-12-07T06:17:41;7.80;26.70
32895;DHT22;19251;49.484;8.260;2022-12-07T06:22:43;7.80;26.80
32895;DHT22;19251;49.484;8.260;2022-12-07T06:27:45;7.80;26.80
32895;DHT22;19251;49.484;8.260;2022-12-07T06:32:47;7.80;26.90
32895;DHT22;19251;49.484;8.260;2022-12-07T06:42:54;7.90;26.90
32895;DHT22;19251;49.484;8.260;2022-12-07T06:47:56;7.90;26.90
32895;DHT22;19251;49.484;8.260;2022-12-07T06:52:58;8.00;26.90
32895;DHT22;19251;49.484;8.260;2022-12-07T06:58:00;8.00;26.90
32895;DHT22;19251;49.484;8.260;2022-12-07T07:03:03;8.00;27.10
32895;DHT22;19251;49.484;8.260;2022-12-07T07:08:06;8.00;27.00
32895;DHT22;19251;49.484;8.260;2022-12-07T07:13:25;8.00;27.00
32895;DHT22;19251;49.484;8.260;2022-12-07T07:18:27;8.00;27.20
32895;DHT22;19251;49.484;8.260;2022-12-07T07:23:30;8.00;27.30
32895;DHT22;19251;49.484;8.260;2022-12-07T07:28:32;8.00;27.30
32895;DHT22;19251;49.484;8.260;2022-12-07T07:33:34;8.10;27.40
32895;DHT22;19251;49.484;8.260;2022-12-07T07:43:39;8.10;27.30
32895;DHT22;19251;49.484;8.260;2022-12-07T07:53:43;8.20;27.40
32895;DHT22;19251;49.484;8.260;2022-12-07T08:03:48;8.30;27.50
32895;DHT22;19251;49.484;8.260;2022-12-07T08:08:50;8.40;27.50
32895;DHT22;19251;49.484;8.260;2022-12-07T08:13:52;8.40;27.60
32895;DHT22;19251;49.484;8.260;2022-12-07T08:18:54;8.50;27.40
32895;DHT22;19251;49.484;8.260;2022-12-07T08:23:57;8.50;27.40
32895;DHT22;19251;49.484;8.260;2022-12-07T08:28:59;8.50;27.40
32895;DHT22;19251;49.484;8.260;2022-12-07T08:34:01;8.60;27.50
32895;DHT22;19251;49.484;8.260;2022-12-07T08:44:26;8.70;27.30
32895;DHT22;19251;49.484;8.260;2022-12-07T08:49:36;8.70;27.20
32895;DHT22;19251;49.484;8.260;2022-12-07T08:54:40;11.60;28.50
32895;DHT22;19251;49.484;8.260;2022-12-07T08:59:42;8.80;27.10
32895;DHT22;19251;49.484;8.260;2022-12-07T09:04:44;8.90;26.90
32895;DHT22;19251;49.484;8.260;2022-12-07T09:09:46;8.90;26.80
32895;DHT22;19251;49.484;8.260;2022-12-07T09:14:49;8.90;26.80
32895;DHT22;19251;49.484;8.260;2022-12-07T09:19:51;8.90;26.70
32895;DHT22;19251;49.484;8.260;2022-12-07T09:24:53;8.90;26.60
32895;DHT22;19251;49.484;8.260;2022-12-07T09:29:55;8.90;26.70
32895;DHT22;19251;49.484;8.260;2022-12-07T09:40:00;9.10;26.80
32895;DHT22;19251;49.484;8.260;2022-12-07T09:45:06;9.10;26.50
32895;DHT22;19251;49.484;8.260;2022-12-07T09:50:15;9.20;26.30
32895;DHT22;19251;49.484;8.260;2022-12-07T09:55:27;9.30;26.30
32895;DHT22;19251;49.484;8.260;2022-12-07T10:00:30;9.30;26.30
32895;DHT22;19251;49.484;8.260;2022-12-07T10:05:39;9.30;25.80
32895;DHT22;19251;49.484;8.260;2022-12-07T10:10:42;9.40;26.10
32895;DHT22;19251;49.484;8.260;2022-12-07T10:15:50;9.40;25.80
32895;DHT22;19251;49.484;8.260;2022-12-07T10:31:23;9.50;25.90
32895;DHT22;19251;49.484;8.260;2022-12-07T10:36:30;9.60;25.90
32895;DHT22;19251;49.484;8.260;2022-12-07T10:41:56;9.60;25.70
32895;DHT22;19251;49.484;8.260;2022-12-07T10:58:16;9.80;24.80
32895;DHT22;19251;49.484;8.260;2022-12-07T11:30:19;9.80;23.70
32895;DHT22;19251;49.484;8.260;2022-12-07T11:35:42;9.80;23.80
32895;DHT22;19251;49.484;8.260;2022-12-07T11:40:53;9.90;24.10
32895;DHT22;19251;49.484;8.260;2022-12-07T11:46:03;10.00;22.10
32895;DHT22;19251;49.484;8.260;2022-12-07T11:51:10;10.20;22.80
32895;DHT22;19251;49.484;8.260;2022-12-07T11:56:15;10.30;22.60
32895;DHT22;19251;49.484;8.260;2022-12-07T12:01:40;10.40;22.10
32895;DHT22;19251;49.484;8.260;2022-12-07T12:06:44;10.60;22.10
32895;DHT22;19251;49.484;8.260;2022-12-07T12:17:52;10.90;20.90
32895;DHT22;19251;49.484;8.260;2022-12-07T12:23:05;10.90;21.30
32895;DHT22;19251;49.484;8.260;2022-12-07T12:33:30;11.00;21.30
32895;DHT22;19251;49.484;8.260;2022-12-07T12:38:34;10.90;20.80
32895;DHT22;19251;49.484;8.260;2022-12-07T12:43:51;10.90;20.80
32895;DHT22;19251;49.484;8.260;2022-12-07T12:49:41;11.00;20.80
32895;DHT22;19251;49.484;8.260;2022-12-07T13:04:34;10.80;20.20
32895;DHT22;19251;49.484;8.260;2022-12-07T13:09:43;10.80;20.50
32895;DHT22;19251;49.484;8.260;2022-12-07T13:14:58;10.80;20.70
32895;DHT22;19251;49.484;8.260;2022-12-07T13:20:07;10.90;20.80
32895;DHT22;19251;49.484;8.260;2022-12-07T13:25:23;11.00;20.90
32895;DHT22;19251;49.484;8.260;2022-12-07T13:30:29;11.10;20.60
32895;DHT22;19251;49.484;8.260;2022-12-07T13:35:37;11.10;20.40
32895;DHT22;19251;49.484;8.260;2022-12-07T13:40:39;11.00;20.10
32895;DHT22;19251;49.484;8.260;2022-12-07T13:45:41;10.90;20.00
32895;DHT22;19251;49.484;8.260;2022-12-07T13:50:54;10.80;19.50
32895;DHT22;19251;49.484;8.260;2022-12-07T13:55:58;10.70;19.10
32895;DHT22;19251;49.484;8.260;2022-12-07T14:01:01;10.70;19.40
32895;DHT22;19251;49.484;8.260;2022-12-07T14:06:24;10.50;19.40
32895;DHT22;19251;49.484;8.260;2022-12-07T14:11:29;10.40;19.70
32895;DHT22;19251;49.484;8.260;2022-12-07T14:16:36;10.40;19.70
32895;DHT22;19251;49.484;8.260;2022-12-07T14:21:39;10.40;19.70
32895;DHT22;19251;49.484;8.260;2022-12-07T14:26:45;10.40;19.70
32895;DHT22;19251;49.484;8.260;2022-12-07T14:31:48;10.40;19.70
32895;DHT22;19251;49.484;8.260;2022-12-07T14:36:51;10.40;19.70
32895;DHT22;19251;49.484;8.260;2022-12-07T14:41:53;10.40;19.70
32895;DHT22;19251;49.484;8.260;2022-12-07T14:46:55;10.40;19.70
32895;DHT22;19251;49.484;8.260;2022-12-07T14:52:20;10.40;20.20
32895;DHT22;19251;49.484;8.260;2022-12-07T15:02:46;10.40;19.70
32895;DHT22;19251;49.484;8.260;2022-12-07T15:07:49;10.30;19.90
32895;DHT22;19251;49.484;8.260;2022-12-07T15:12:51;10.30;19.90
32895;DHT22;19251;49.484;8.260;2022-12-07T15:17:53;10.30;19.90
32895;DHT22;19251;49.484;8.260;2022-12-07T15:22:56;10.20;19.90
32895;DHT22;19251;49.484;8.260;2022-12-07T15:27:58;10.20;19.90
32895;DHT22;19251;49.484;8.260;2022-12-07T15:33:00;10.10;19.90
32895;DHT22;19251;49.484;8.260;2022-12-07T15:38:03;10.00;19.90
32895;DHT22;19251;49.484;8.260;2022-12-07T15:43:05;10.00;20.00
32895;DHT22;19251;49.484;8.260;2022-12-07T15:48:27;9.90;21.20
32895;DHT22;19251;49.484;8.260;2022-12-07T15:53:31;9.80;21.30
32895;DHT22;19251;49.484;8.260;2022-12-07T15:58:33;9.70;21.20
32895;DHT22;19251;49.484;8.260;2022-12-07T16:03:35;9.60;21.50
32895;DHT22;19251;49.484;8.260;2022-12-07T16:08:42;9.50;21.50
32895;DHT22;19251;49.484;8.260;2022-12-07T16:13:45;9.40;21.50
32895;DHT22;19251;49.484;8.260;2022-12-07T16:18:49;9.20;21.60
32895;DHT22;19251;49.484;8.260;2022-12-07T16:28:54;9.10;21.90
32895;DHT22;19251;49.484;8.260;2022-12-07T16:33:59;8.90;21.80
32895;DHT22;19251;49.484;8.260;2022-12-07T16:39:02;8.80;22.20
32895;DHT22;19251;49.484;8.260;2022-12-07T16:44:06;8.70;22.40
32895;DHT22;19251;49.484;8.260;2022-12-07T16:49:16;8.60;22.50
32895;DHT22;19251;49.484;8.260;2022-12-07T16:54:18;8.40;22.20
32895;DHT22;19251;49.484;8.260;2022-12-07T16:59:20;8.40;22.20
32895;DHT22;19251;49.484;8.260;2022-12-07T17:04:22;8.20;22.20
32895;DHT22;19251;49.484;8.260;2022-12-07T17:09:24;7.80;22.80
32895;DHT22;19251;49.484;8.260;2022-12-07T17:14:27;7.90;22.20
32895;DHT22;19251;49.484;8.260;2022-12-07T17:19:47;7.70;22.60
32895;DHT22;19251;49.484;8.260;2022-12-07T17:24:49;7.60;22.40
32895;DHT22;19251;49.484;8.260;2022-12-07T17:29:52;7.50;22.60
32895;DHT22;19251;49.484;8.260;2022-12-07T17:39:56;7.40;23.40
32895;DHT22;19251;49.484;8.260;2022-12-07T17:44:59;7.40;23.40
32895;DHT22;19251;49.484;8.260;2022-12-07T17:50:03;7.40;23.50
32895;DHT22;19251;49.484;8.260;2022-12-07T17:55:08;7.50;23.80
32895;DHT22;19251;49.484;8.260;2022-12-07T18:00:11;7.50;24.20
32895;DHT22;19251;49.484;8.260;2022-12-07T18:05:13;7.50;23.90
32895;DHT22;19251;49.484;8.260;2022-12-07T18:10:15;7.50;24.80
32895;DHT22;19251;49.484;8.260;2022-12-07T18:15:18;7.50;24.20
32895;DHT22;19251;49.484;8.260;2022-12-07T18:20:20;7.50;23.90
32895;DHT22;19251;49.484;8.260;2022-12-07T18:25:22;7.40;24.40
32895;DHT22;19251;49.484;8.260;2022-12-07T18:30:24;7.40;24.10
32895;DHT22;19251;49.484;8.260;2022-12-07T18:35:47;7.30;24.30
32895;DHT22;19251;49.484;8.260;2022-12-07T18:40:49;7.30;24.10
32895;DHT22;19251;49.484;8.260;2022-12-07T18:45:51;7.30;24.00
32895;DHT22;19251;49.484;8.260;2022-12-07T18:51:03;7.30;24.30
32895;DHT22;19251;49.484;8.260;2022-12-07T18:56:09;7.30;24.50
32895;DHT22;19251;49.484;8.260;2022-12-07T19:01:12;7.30;24.30
32895;DHT22;19251;49.484;8.260;2022-12-07T19:06:14;7.20;24.50
32895;DHT22;19251;49.484;8.260;2022-12-07T19:11:29;7.50;24.50
32895;DHT22;19251;49.484;8.260;2022-12-07T19:16:53;7.50;24.50
32895;DHT22;19251;49.484;8.260;2022-12-07T19:21:55;7.40;24.40
32895;DHT22;19251;49.484;8.260;2022-12-07T19:26:57;7.50;24.50
32895;DHT22;19251;49.484;8.260;2022-12-07T19:32:01;7.40;24.40
32895;DHT22;19251;49.484;8.260;2022-12-07T19:37:04;7.40;24.70
32895;DHT22;19251;49.484;8.260;2022-12-07T19:42:07;7.40;24.70
32895;DHT22;19251;49.484;8.260;2022-12-07T19:47:09;7.40;25.00
32895;DHT22;19251;49.484;8.260;2022-12-07T19:52:12;7.40;24.70
32895;DHT22;19251;49.484;8.260;2022-12-07T19:57:15;7.40;24.90
32895;DHT22;19251;49.484;8.260;2022-12-07T20:02:18;7.50;24.90
32895;DHT22;19251;49.484;8.260;2022-12-07T20:07:20;7.40;25.70
32895;DHT22;19251;49.484;8.260;2022-12-07T20:12:22;7.40;24.80
32895;DHT22;19251;49.484;8.260;2022-12-07T20:22:45;7.50;24.90
32895;DHT22;19251;49.484;8.260;2022-12-07T20:27:47;7.40;24.90
32895;DHT22;19251;49.484;8.260;2022-12-07T20:32:50;7.40;25.00
32895;DHT22;19251;49.484;8.260;2022-12-07T20:37:52;7.40;24.90
32895;DHT22;19251;49.484;8.260;2022-12-07T20:42:54;7.40;25.00
32895;DHT22;19251;49.484;8.260;2022-12-07T20:47:56;7.30;25.40
32895;DHT22;19251;49.484;8.260;2022-12-07T20:52:58;7.30;25.90
32895;DHT22;19251;49.484;8.260;2022-12-07T20:58:01;7.30;25.50
32895;DHT22;19251;49.484;8.260;2022-12-07T21:03:04;7.30;25.50
32895;DHT22;19251;49.484;8.260;2022-12-07T21:08:06;7.30;25.40
32895;DHT22;19251;49.484;8.260;2022-12-07T21:13:08;7.30;25.70
32895;DHT22;19251;49.484;8.260;2022-12-07T21:18:10;7.30;25.70
32895;DHT22;19251;49.484;8.260;2022-12-07T21:23:13;7.30;25.80
32895;DHT22;19251;49.484;8.260;2022-12-07T21:28:15;7.30;25.50
32895;DHT22;19251;49.484;8.260;2022-12-07T21:33:17;7.30;25.80
32895;DHT22;19251;49.484;8.260;2022-12-07T21:38:19;7.30;25.80
32895;DHT22;19251;49.484;8.260;2022-12-07T21:43:21;7.40;25.70
32895;DHT22;19251;49.484;8.260;2022-12-07T21:53:26;7.40;25.70
32895;DHT22;19251;49.484;8.260;2022-12-07T21:58:29;7.30;25.60
32895;DHT22;19251;49.484;8.260;2022-12-07T22:03:31;7.30;25.60
32895;DHT22;19251;49.484;8.260;2022-12-07T22:13:38;7.30;25.60
32895;DHT22;19251;49.484;8.260;2022-12-07T22:24:02;7.30;25.60
32895;DHT22;19251;49.484;8.260;2022-12-07T22:29:04;7.20;25.60
32895;DHT22;19251;49.484;8.260;2022-12-07T22:34:15;7.20;25.60
32895;DHT22;19251;49.484;8.260;2022-12-07T22:44:20;6.70;25.40
32895;DHT22;19251;49.484;8.260;2022-12-07T22:49:22;7.20;25.80
32895;DHT22;19251;49.484;8.260;2022-12-07T22:54:29;7.20;25.90
32895;DHT22;19251;49.484;8.260;2022-12-07T22:59:32;7.10;25.90
32895;DHT22;19251;49.484;8.260;2022-12-07T23:04:34;7.20;25.90
32895;DHT22;19251;49.484;8.260;2022-12-07T23:09:36;7.20;26.00
32895;DHT22;19251;49.484;8.260;2022-12-07T23:19:41;7.20;26.10
32895;DHT22;19251;49.484;8.260;2022-12-07T23:24:43;7.20;26.00
32895;DHT22;19251;49.484;8.260;2022-12-07T23:34:47;7.20;26.30
32895;DHT22;19251;49.484;8.260;2022-12-07T23:49:54;7.20;26.30
32895;DHT22;19251;49.484;8.260;2022-12-07T23:54:56;7.20;26.20
32895;DHT22;19251;49.484;8.260;2022-12-07T23:59:59;7.20;26.20
